North Waterford, Maine
Current Conditions -  °F | °C
As of 7:54 AM on Thursday 18 Dec 2014 (Local Time) from KIZG Reporting Station
Overcast Overcast  
Wind Chill: 32°   Ceiling: 7500
Heat Index: 36°   Visibility: 10mi
Dew Point: 30°   Wind: 5mph
Humidity: 79%   Direction: NA
Pressure: 29.67"   Gusts: NA
Location:  44.23°N, 70.77°W
Report Text: KIZG 181254Z AUTO VRB04KT 10SM SCT050 OVC075 02/M01 A2967 RMK AO2 SLP051 T00221011 TSNO
Loading
Personal Weather Stations






























Interactive Weather Map New forecast layout! Learn more

10-Day Weather Forecast

Advertisements
Track Severe Weather on mobile